sensor_id;sensor_type;location;lat;lon;timestamp;P1;durP1;ratioP1;P2;durP2;ratioP2
56136;SDS011;42008;52.934;5.884;2022-11-14T00:00:30;69.50;;;38.93;;
56136;SDS011;42008;52.934;5.884;2022-11-14T00:03:00;67.17;;;37.50;;
56136;SDS011;42008;52.934;5.884;2022-11-14T00:05:27;65.20;;;37.40;;
56136;SDS011;42008;52.934;5.884;2022-11-14T00:07:53;69.63;;;38.37;;
56136;SDS011;42008;52.934;5.884;2022-11-14T00:10:18;74.63;;;39.63;;
56136;SDS011;42008;52.934;5.884;2022-11-14T00:12:44;75.17;;;39.80;;
56136;SDS011;42008;52.934;5.884;2022-11-14T00:15:10;77.27;;;38.27;;
56136;SDS011;42008;52.934;5.884;2022-11-14T00:17:37;71.90;;;38.57;;
56136;SDS011;42008;52.934;5.884;2022-11-14T00:20:03;66.10;;;36.23;;
56136;SDS011;42008;52.934;5.884;2022-11-14T00:22:30;75.87;;;37.37;;
56136;SDS011;42008;52.934;5.884;2022-11-14T00:24:55;74.43;;;37.43;;
56136;SDS011;42008;52.934;5.884;2022-11-14T00:27:21;70.07;;;37.47;;
56136;SDS011;42008;52.934;5.884;2022-11-14T00:29:47;75.07;;;37.70;;
56136;SDS011;42008;52.934;5.884;2022-11-14T00:32:12;75.27;;;37.77;;
56136;SDS011;42008;52.934;5.884;2022-11-14T00:34:38;74.17;;;37.83;;
56136;SDS011;42008;52.934;5.884;2022-11-14T00:37:03;78.10;;;38.33;;
56136;SDS011;42008;52.934;5.884;2022-11-14T00:39:29;67.53;;;35.77;;
56136;SDS011;42008;52.934;5.884;2022-11-14T00:41:55;77.33;;;37.27;;
56136;SDS011;42008;52.934;5.884;2022-11-14T00:44:20;76.70;;;36.40;;
56136;SDS011;42008;52.934;5.884;2022-11-14T00:46:46;71.77;;;36.07;;
56136;SDS011;42008;52.934;5.884;2022-11-14T00:49:12;81.00;;;36.73;;
56136;SDS011;42008;52.934;5.884;2022-11-14T00:51:37;77.23;;;35.83;;
56136;SDS011;42008;52.934;5.884;2022-11-14T00:54:03;79.23;;;36.63;;
56136;SDS011;42008;52.934;5.884;2022-11-14T00:56:29;77.13;;;36.73;;
56136;SDS011;42008;52.934;5.884;2022-11-14T00:58:54;67.90;;;33.63;;
56136;SDS011;42008;52.934;5.884;2022-11-14T01:01:20;79.43;;;37.17;;
56136;SDS011;42008;52.934;5.884;2022-11-14T01:03:46;71.47;;;36.57;;
56136;SDS011;42008;52.934;5.884;2022-11-14T01:06:13;77.17;;;37.83;;
56136;SDS011;42008;52.934;5.884;2022-11-14T01:08:40;81.80;;;37.37;;
56136;SDS011;42008;52.934;5.884;2022-11-14T01:11:14;77.77;;;37.60;;
56136;SDS011;42008;52.934;5.884;2022-11-14T01:13:42;67.93;;;35.83;;
56136;SDS011;42008;52.934;5.884;2022-11-14T01:16:08;79.37;;;38.30;;
56136;SDS011;42008;52.934;5.884;2022-11-14T01:18:34;81.23;;;37.97;;
56136;SDS011;42008;52.934;5.884;2022-11-14T01:21:03;73.43;;;36.20;;
56136;SDS011;42008;52.934;5.884;2022-11-14T01:23:30;75.77;;;37.60;;
56136;SDS011;42008;52.934;5.884;2022-11-14T01:26:00;78.17;;;37.63;;
56136;SDS011;42008;52.934;5.884;2022-11-14T01:28:30;73.67;;;36.97;;
56136;SDS011;42008;52.934;5.884;2022-11-14T01:31:05;73.17;;;37.87;;
56136;SDS011;42008;52.934;5.884;2022-11-14T01:33:40;72.50;;;37.90;;
56136;SDS011;42008;52.934;5.884;2022-11-14T01:36:06;69.40;;;37.03;;
56136;SDS011;42008;52.934;5.884;2022-11-14T01:38:33;74.57;;;36.97;;
56136;SDS011;42008;52.934;5.884;2022-11-14T01:40:59;66.97;;;36.37;;
56136;SDS011;42008;52.934;5.884;2022-11-14T01:43:30;73.43;;;40.10;;
56136;SDS011;42008;52.934;5.884;2022-11-14T01:46:02;67.77;;;36.10;;
56136;SDS011;42008;52.934;5.884;2022-11-14T01:48:40;73.70;;;39.47;;
56136;SDS011;42008;52.934;5.884;2022-11-14T01:53:54;71.33;;;40.23;;
56136;SDS011;42008;52.934;5.884;2022-11-14T01:59:15;77.10;;;39.63;;
56136;SDS011;42008;52.934;5.884;2022-11-14T02:01:48;75.33;;;39.20;;
56136;SDS011;42008;52.934;5.884;2022-11-14T02:04:22;72.20;;;39.27;;
56136;SDS011;42008;52.934;5.884;2022-11-14T02:06:52;71.03;;;40.23;;
56136;SDS011;42008;52.934;5.884;2022-11-14T02:09:23;70.38;;;38.58;;
56136;SDS011;42008;52.934;5.884;2022-11-14T02:11:50;69.03;;;41.23;;
56136;SDS011;42008;52.934;5.884;2022-11-14T02:14:18;72.17;;;41.97;;
56136;SDS011;42008;52.934;5.884;2022-11-14T02:16:44;72.63;;;42.03;;
56136;SDS011;42008;52.934;5.884;2022-11-14T02:19:10;70.90;;;41.60;;
56136;SDS011;42008;52.934;5.884;2022-11-14T02:21:38;72.93;;;41.67;;
56136;SDS011;42008;52.934;5.884;2022-11-14T02:24:07;79.20;;;43.17;;
56136;SDS011;42008;52.934;5.884;2022-11-14T02:26:37;79.27;;;44.73;;
56136;SDS011;42008;52.934;5.884;2022-11-14T02:29:05;71.27;;;42.67;;
56136;SDS011;42008;52.934;5.884;2022-11-14T02:31:32;69.40;;;41.80;;
56136;SDS011;42008;52.934;5.884;2022-11-14T02:33:58;73.63;;;44.00;;
56136;SDS011;42008;52.934;5.884;2022-11-14T02:36:23;77.83;;;42.87;;
56136;SDS011;42008;52.934;5.884;2022-11-14T02:38:49;75.80;;;43.43;;
56136;SDS011;42008;52.934;5.884;2022-11-14T02:41:14;75.17;;;44.20;;
56136;SDS011;42008;52.934;5.884;2022-11-14T02:43:40;77.67;;;44.87;;
56136;SDS011;42008;52.934;5.884;2022-11-14T02:46:06;75.47;;;41.83;;
56136;SDS011;42008;52.934;5.884;2022-11-14T02:48:34;77.37;;;43.57;;
56136;SDS011;42008;52.934;5.884;2022-11-14T02:51:00;77.43;;;43.27;;
56136;SDS011;42008;52.934;5.884;2022-11-14T02:53:25;77.70;;;44.83;;
56136;SDS011;42008;52.934;5.884;2022-11-14T02:55:51;78.30;;;44.17;;
56136;SDS011;42008;52.934;5.884;2022-11-14T02:58:17;81.07;;;45.03;;
56136;SDS011;42008;52.934;5.884;2022-11-14T03:00:42;77.53;;;45.13;;
56136;SDS011;42008;52.934;5.884;2022-11-14T03:03:08;82.73;;;45.23;;
56136;SDS011;42008;52.934;5.884;2022-11-14T03:05:36;82.13;;;46.00;;
56136;SDS011;42008;52.934;5.884;2022-11-14T03:08:02;84.43;;;46.70;;
56136;SDS011;42008;52.934;5.884;2022-11-14T03:10:28;82.70;;;46.70;;
56136;SDS011;42008;52.934;5.884;2022-11-14T03:12:53;76.33;;;44.90;;
56136;SDS011;42008;52.934;5.884;2022-11-14T03:15:20;79.57;;;44.83;;
56136;SDS011;42008;52.934;5.884;2022-11-14T03:17:46;79.10;;;45.30;;
56136;SDS011;42008;52.934;5.884;2022-11-14T03:20:11;84.73;;;46.30;;
56136;SDS011;42008;52.934;5.884;2022-11-14T03:22:37;78.03;;;44.60;;
56136;SDS011;42008;52.934;5.884;2022-11-14T03:25:02;80.37;;;45.57;;
56136;SDS011;42008;52.934;5.884;2022-11-14T03:27:28;82.00;;;46.63;;
56136;SDS011;42008;52.934;5.884;2022-11-14T03:29:54;78.30;;;45.80;;
56136;SDS011;42008;52.934;5.884;2022-11-14T03:32:20;80.30;;;45.60;;
56136;SDS011;42008;52.934;5.884;2022-11-14T03:34:45;85.10;;;46.73;;
56136;SDS011;42008;52.934;5.884;2022-11-14T03:37:11;82.10;;;47.13;;
56136;SDS011;42008;52.934;5.884;2022-11-14T03:39:36;86.20;;;46.77;;
56136;SDS011;42008;52.934;5.884;2022-11-14T03:42:02;88.77;;;47.57;;
56136;SDS011;42008;52.934;5.884;2022-11-14T03:44:28;84.07;;;48.57;;
56136;SDS011;42008;52.934;5.884;2022-11-14T03:46:54;87.27;;;48.07;;
56136;SDS011;42008;52.934;5.884;2022-11-14T03:49:19;93.03;;;51.43;;
56136;SDS011;42008;52.934;5.884;2022-11-14T03:51:45;85.83;;;48.33;;
56136;SDS011;42008;52.934;5.884;2022-11-14T03:54:10;84.87;;;48.13;;
56136;SDS011;42008;52.934;5.884;2022-11-14T03:56:36;92.90;;;51.53;;
56136;SDS011;42008;52.934;5.884;2022-11-14T03:59:02;93.53;;;50.80;;
56136;SDS011;42008;52.934;5.884;2022-11-14T04:01:27;92.13;;;51.53;;
56136;SDS011;42008;52.934;5.884;2022-11-14T04:03:53;92.67;;;50.53;;
56136;SDS011;42008;52.934;5.884;2022-11-14T04:06:19;95.30;;;53.90;;
56136;SDS011;42008;52.934;5.884;2022-11-14T04:08:45;96.47;;;52.27;;
56136;SDS011;42008;52.934;5.884;2022-11-14T04:11:10;95.77;;;53.07;;
56136;SDS011;42008;52.934;5.884;2022-11-14T04:13:36;91.50;;;49.87;;
56136;SDS011;42008;52.934;5.884;2022-11-14T04:16:02;98.17;;;53.33;;
56136;SDS011;42008;52.934;5.884;2022-11-14T04:18:27;97.90;;;53.60;;
56136;SDS011;42008;52.934;5.884;2022-11-14T04:20:53;100.50;;;53.70;;
56136;SDS011;42008;52.934;5.884;2022-11-14T04:23:19;105.70;;;54.77;;
56136;SDS011;42008;52.934;5.884;2022-11-14T04:25:45;100.33;;;54.17;;
56136;SDS011;42008;52.934;5.884;2022-11-14T04:28:11;103.80;;;53.93;;
56136;SDS011;42008;52.934;5.884;2022-11-14T04:30:37;108.90;;;56.23;;
56136;SDS011;42008;52.934;5.884;2022-11-14T04:33:03;107.17;;;53.17;;
56136;SDS011;42008;52.934;5.884;2022-11-14T04:35:29;114.80;;;55.37;;
56136;SDS011;42008;52.934;5.884;2022-11-14T04:37:55;102.70;;;54.90;;
56136;SDS011;42008;52.934;5.884;2022-11-14T04:40:20;111.40;;;56.10;;
56136;SDS011;42008;52.934;5.884;2022-11-14T04:42:47;118.03;;;57.40;;
56136;SDS011;42008;52.934;5.884;2022-11-14T04:45:12;112.57;;;56.13;;
56136;SDS011;42008;52.934;5.884;2022-11-14T04:47:39;113.70;;;56.73;;
56136;SDS011;42008;52.934;5.884;2022-11-14T04:50:06;108.83;;;54.77;;
56136;SDS011;42008;52.934;5.884;2022-11-14T04:52:32;106.13;;;55.23;;
56136;SDS011;42008;52.934;5.884;2022-11-14T04:54:57;105.33;;;52.37;;
56136;SDS011;42008;52.934;5.884;2022-11-14T04:57:23;112.83;;;57.40;;
56136;SDS011;42008;52.934;5.884;2022-11-14T04:59:49;110.03;;;55.87;;
56136;SDS011;42008;52.934;5.884;2022-11-14T05:02:14;112.27;;;56.57;;
56136;SDS011;42008;52.934;5.884;2022-11-14T05:04:40;114.67;;;55.40;;
56136;SDS011;42008;52.934;5.884;2022-11-14T05:07:08;106.10;;;54.13;;
56136;SDS011;42008;52.934;5.884;2022-11-14T05:09:34;108.63;;;54.53;;
56136;SDS011;42008;52.934;5.884;2022-11-14T05:12:01;113.73;;;56.57;;
56136;SDS011;42008;52.934;5.884;2022-11-14T05:14:27;115.73;;;57.27;;
56136;SDS011;42008;52.934;5.884;2022-11-14T05:16:53;111.70;;;56.20;;
56136;SDS011;42008;52.934;5.884;2022-11-14T05:19:19;114.07;;;57.50;;
56136;SDS011;42008;52.934;5.884;2022-11-14T05:21:44;120.87;;;58.80;;
56136;SDS011;42008;52.934;5.884;2022-11-14T05:24:10;118.70;;;57.97;;
56136;SDS011;42008;52.934;5.884;2022-11-14T05:26:36;123.27;;;59.73;;
56136;SDS011;42008;52.934;5.884;2022-11-14T05:29:01;118.27;;;57.70;;
56136;SDS011;42008;52.934;5.884;2022-11-14T05:31:28;121.47;;;60.37;;
56136;SDS011;42008;52.934;5.884;2022-11-14T05:33:54;122.60;;;61.27;;
56136;SDS011;42008;52.934;5.884;2022-11-14T05:36:19;119.87;;;59.07;;
56136;SDS011;42008;52.934;5.884;2022-11-14T05:38:45;127.03;;;61.23;;
56136;SDS011;42008;52.934;5.884;2022-11-14T05:41:12;123.33;;;60.00;;
56136;SDS011;42008;52.934;5.884;2022-11-14T05:43:42;117.80;;;58.33;;
56136;SDS011;42008;52.934;5.884;2022-11-14T05:46:09;124.27;;;59.73;;
56136;SDS011;42008;52.934;5.884;2022-11-14T05:48:35;121.10;;;59.43;;
56136;SDS011;42008;52.934;5.884;2022-11-14T05:51:02;132.77;;;62.83;;
56136;SDS011;42008;52.934;5.884;2022-11-14T05:53:29;126.20;;;60.27;;
56136;SDS011;42008;52.934;5.884;2022-11-14T05:56:03;127.33;;;61.57;;
56136;SDS011;42008;52.934;5.884;2022-11-14T05:58:30;129.63;;;61.87;;
56136;SDS011;42008;52.934;5.884;2022-11-14T06:01:00;118.10;;;59.83;;
56136;SDS011;42008;52.934;5.884;2022-11-14T06:03:31;119.43;;;59.77;;
56136;SDS011;42008;52.934;5.884;2022-11-14T06:06:18;123.60;;;61.67;;
56136;SDS011;42008;52.934;5.884;2022-11-14T06:08:45;114.33;;;58.90;;
56136;SDS011;42008;52.934;5.884;2022-11-14T06:11:12;118.50;;;59.33;;
56136;SDS011;42008;52.934;5.884;2022-11-14T06:13:40;127.03;;;60.43;;
56136;SDS011;42008;52.934;5.884;2022-11-14T06:16:07;130.57;;;61.67;;
56136;SDS011;42008;52.934;5.884;2022-11-14T06:18:35;124.60;;;60.00;;
56136;SDS011;42008;52.934;5.884;2022-11-14T06:21:02;112.27;;;57.63;;
56136;SDS011;42008;52.934;5.884;2022-11-14T06:23:34;120.03;;;58.63;;
56136;SDS011;42008;52.934;5.884;2022-11-14T06:26:00;124.63;;;60.33;;
56136;SDS011;42008;52.934;5.884;2022-11-14T06:28:27;119.97;;;58.17;;
56136;SDS011;42008;52.934;5.884;2022-11-14T06:30:58;120.83;;;60.27;;
56136;SDS011;42008;52.934;5.884;2022-11-14T06:33:25;114.77;;;58.17;;
56136;SDS011;42008;52.934;5.884;2022-11-14T06:35:56;120.23;;;57.53;;
56136;SDS011;42008;52.934;5.884;2022-11-14T06:38:25;114.07;;;58.43;;
56136;SDS011;42008;52.934;5.884;2022-11-14T06:40:51;121.97;;;59.83;;
56136;SDS011;42008;52.934;5.884;2022-11-14T06:43:17;119.93;;;58.87;;
56136;SDS011;42008;52.934;5.884;2022-11-14T06:45:42;115.20;;;58.50;;
56136;SDS011;42008;52.934;5.884;2022-11-14T06:48:10;119.57;;;59.23;;
56136;SDS011;42008;52.934;5.884;2022-11-14T06:50:36;129.33;;;61.27;;
56136;SDS011;42008;52.934;5.884;2022-11-14T06:53:01;118.93;;;57.83;;
56136;SDS011;42008;52.934;5.884;2022-11-14T06:55:27;117.97;;;59.03;;
56136;SDS011;42008;52.934;5.884;2022-11-14T06:57:53;115.50;;;57.13;;
56136;SDS011;42008;52.934;5.884;2022-11-14T07:00:19;125.13;;;60.77;;
56136;SDS011;42008;52.934;5.884;2022-11-14T07:02:46;117.87;;;59.07;;
56136;SDS011;42008;52.934;5.884;2022-11-14T07:05:12;111.20;;;56.53;;
56136;SDS011;42008;52.934;5.884;2022-11-14T07:07:38;112.07;;;57.27;;
56136;SDS011;42008;52.934;5.884;2022-11-14T07:10:04;116.00;;;56.77;;
56136;SDS011;42008;52.934;5.884;2022-11-14T07:12:30;121.60;;;58.30;;
56136;SDS011;42008;52.934;5.884;2022-11-14T07:14:56;121.87;;;59.47;;
56136;SDS011;42008;52.934;5.884;2022-11-14T07:17:22;118.37;;;57.33;;
56136;SDS011;42008;52.934;5.884;2022-11-14T07:19:48;118.63;;;58.73;;
56136;SDS011;42008;52.934;5.884;2022-11-14T07:22:14;130.77;;;61.10;;
56136;SDS011;42008;52.934;5.884;2022-11-14T07:24:39;127.20;;;60.67;;
56136;SDS011;42008;52.934;5.884;2022-11-14T07:27:05;113.50;;;56.90;;
56136;SDS011;42008;52.934;5.884;2022-11-14T07:29:33;117.37;;;57.37;;
56136;SDS011;42008;52.934;5.884;2022-11-14T07:31:58;121.73;;;59.60;;
56136;SDS011;42008;52.934;5.884;2022-11-14T07:34:24;110.73;;;55.97;;
56136;SDS011;42008;52.934;5.884;2022-11-14T07:36:50;121.70;;;58.47;;
56136;SDS011;42008;52.934;5.884;2022-11-14T07:39:15;116.33;;;57.53;;
56136;SDS011;42008;52.934;5.884;2022-11-14T07:41:41;115.70;;;57.73;;
56136;SDS011;42008;52.934;5.884;2022-11-14T07:44:07;119.93;;;58.93;;
56136;SDS011;42008;52.934;5.884;2022-11-14T07:46:32;117.70;;;56.43;;
56136;SDS011;42008;52.934;5.884;2022-11-14T07:48:58;114.53;;;56.87;;
56136;SDS011;42008;52.934;5.884;2022-11-14T07:51:24;124.30;;;59.50;;
56136;SDS011;42008;52.934;5.884;2022-11-14T07:53:50;115.73;;;56.17;;
56136;SDS011;42008;52.934;5.884;2022-11-14T07:56:17;121.03;;;58.27;;
56136;SDS011;42008;52.934;5.884;2022-11-14T07:58:44;118.70;;;56.83;;
56136;SDS011;42008;52.934;5.884;2022-11-14T08:01:10;109.33;;;54.33;;
56136;SDS011;42008;52.934;5.884;2022-11-14T08:03:37;115.37;;;56.53;;
56136;SDS011;42008;52.934;5.884;2022-11-14T08:06:03;111.00;;;57.00;;
56136;SDS011;42008;52.934;5.884;2022-11-14T08:08:34;112.77;;;55.77;;
56136;SDS011;42008;52.934;5.884;2022-11-14T08:11:00;110.27;;;56.87;;
56136;SDS011;42008;52.934;5.884;2022-11-14T08:13:26;111.63;;;55.63;;
56136;SDS011;42008;52.934;5.884;2022-11-14T08:15:52;106.53;;;53.60;;
56136;SDS011;42008;52.934;5.884;2022-11-14T08:18:19;108.23;;;55.90;;
56136;SDS011;42008;52.934;5.884;2022-11-14T08:20:44;109.27;;;55.27;;
56136;SDS011;42008;52.934;5.884;2022-11-14T08:23:10;102.30;;;52.30;;
56136;SDS011;42008;52.934;5.884;2022-11-14T08:25:36;106.73;;;57.00;;
56136;SDS011;42008;52.934;5.884;2022-11-14T08:28:02;105.93;;;56.33;;
56136;SDS011;42008;52.934;5.884;2022-11-14T08:30:28;96.83;;;53.20;;
56136;SDS011;42008;52.934;5.884;2022-11-14T08:32:54;103.97;;;54.43;;
56136;SDS011;42008;52.934;5.884;2022-11-14T08:35:20;103.83;;;54.23;;
56136;SDS011;42008;52.934;5.884;2022-11-14T08:37:46;96.17;;;52.60;;
56136;SDS011;42008;52.934;5.884;2022-11-14T08:40:12;102.20;;;54.27;;
56136;SDS011;42008;52.934;5.884;2022-11-14T08:42:37;98.37;;;51.27;;
56136;SDS011;42008;52.934;5.884;2022-11-14T08:45:03;99.73;;;52.00;;
56136;SDS011;42008;52.934;5.884;2022-11-14T08:47:30;89.20;;;49.30;;
56136;SDS011;42008;52.934;5.884;2022-11-14T08:49:56;92.73;;;51.60;;
56136;SDS011;42008;52.934;5.884;2022-11-14T08:52:22;94.83;;;50.53;;
56136;SDS011;42008;52.934;5.884;2022-11-14T08:54:47;90.83;;;49.90;;
56136;SDS011;42008;52.934;5.884;2022-11-14T08:57:13;88.00;;;48.57;;
56136;SDS011;42008;52.934;5.884;2022-11-14T08:59:42;95.00;;;49.03;;
56136;SDS011;42008;52.934;5.884;2022-11-14T09:02:09;88.83;;;48.10;;
56136;SDS011;42008;52.934;5.884;2022-11-14T09:04:35;78.97;;;46.03;;
56136;SDS011;42008;52.934;5.884;2022-11-14T09:07:01;78.50;;;46.33;;
56136;SDS011;42008;52.934;5.884;2022-11-14T09:09:27;84.43;;;46.87;;
56136;SDS011;42008;52.934;5.884;2022-11-14T09:11:52;86.93;;;49.50;;
56136;SDS011;42008;52.934;5.884;2022-11-14T09:14:18;80.07;;;46.23;;
56136;SDS011;42008;52.934;5.884;2022-11-14T09:16:45;79.93;;;46.40;;
56136;SDS011;42008;52.934;5.884;2022-11-14T09:19:11;85.23;;;47.80;;
56136;SDS011;42008;52.934;5.884;2022-11-14T09:21:37;79.43;;;46.93;;
56136;SDS011;42008;52.934;5.884;2022-11-14T09:24:03;79.97;;;45.80;;
56136;SDS011;42008;52.934;5.884;2022-11-14T09:26:28;79.03;;;43.77;;
56136;SDS011;42008;52.934;5.884;2022-11-14T09:28:54;76.23;;;45.13;;
56136;SDS011;42008;52.934;5.884;2022-11-14T09:31:20;77.07;;;44.23;;
56136;SDS011;42008;52.934;5.884;2022-11-14T09:33:45;71.37;;;42.37;;
56136;SDS011;42008;52.934;5.884;2022-11-14T09:36:11;72.53;;;43.60;;
56136;SDS011;42008;52.934;5.884;2022-11-14T09:38:40;71.17;;;43.00;;
56136;SDS011;42008;52.934;5.884;2022-11-14T09:43:42;68.67;;;41.47;;
56136;SDS011;42008;52.934;5.884;2022-11-14T09:46:38;74.83;;;43.20;;
56136;SDS011;42008;52.934;5.884;2022-11-14T09:49:25;74.73;;;44.23;;
56136;SDS011;42008;52.934;5.884;2022-11-14T09:52:11;69.50;;;41.43;;
56136;SDS011;42008;52.934;5.884;2022-11-14T09:54:55;72.23;;;41.87;;
56136;SDS011;42008;52.934;5.884;2022-11-14T09:57:23;68.53;;;43.13;;
56136;SDS011;42008;52.934;5.884;2022-11-14T09:59:50;68.57;;;41.43;;
56136;SDS011;42008;52.934;5.884;2022-11-14T10:15:25;58.53;;;38.03;;
56136;SDS011;42008;52.934;5.884;2022-11-14T10:20:40;59.77;;;38.37;;
56136;SDS011;42008;52.934;5.884;2022-11-14T10:25:54;56.87;;;35.23;;
56136;SDS011;42008;52.934;5.884;2022-11-14T10:37:11;52.77;;;34.27;;
56136;SDS011;42008;52.934;5.884;2022-11-14T10:39:50;47.77;;;32.53;;
56136;SDS011;42008;52.934;5.884;2022-11-14T10:42:33;49.73;;;31.83;;
56136;SDS011;42008;52.934;5.884;2022-11-14T10:45:03;49.93;;;32.10;;
56136;SDS011;42008;52.934;5.884;2022-11-14T10:47:40;46.07;;;31.30;;
56136;SDS011;42008;52.934;5.884;2022-11-14T10:50:17;45.53;;;30.43;;
56136;SDS011;42008;52.934;5.884;2022-11-14T10:52:45;46.53;;;31.67;;
56136;SDS011;42008;52.934;5.884;2022-11-14T10:55:13;45.20;;;31.47;;
56136;SDS011;42008;52.934;5.884;2022-11-14T10:57:40;44.37;;;30.23;;
56136;SDS011;42008;52.934;5.884;2022-11-14T11:00:17;45.10;;;30.73;;
56136;SDS011;42008;52.934;5.884;2022-11-14T11:02:54;44.13;;;30.10;;
56136;SDS011;42008;52.934;5.884;2022-11-14T11:05:26;44.07;;;29.63;;
56136;SDS011;42008;52.934;5.884;2022-11-14T11:07:56;45.97;;;29.93;;
56136;SDS011;42008;52.934;5.884;2022-11-14T11:10:42;40.00;;;27.63;;
56136;SDS011;42008;52.934;5.884;2022-11-14T11:13:29;43.47;;;29.13;;
56136;SDS011;42008;52.934;5.884;2022-11-14T11:15:58;43.93;;;30.07;;
56136;SDS011;42008;52.934;5.884;2022-11-14T11:21:02;38.17;;;26.83;;
56136;SDS011;42008;52.934;5.884;2022-11-14T11:23:31;36.83;;;26.27;;
56136;SDS011;42008;52.934;5.884;2022-11-14T11:25:59;40.40;;;28.87;;
56136;SDS011;42008;52.934;5.884;2022-11-14T11:28:30;40.35;;;26.48;;
56136;SDS011;42008;52.934;5.884;2022-11-14T11:30:57;41.10;;;27.10;;
56136;SDS011;42008;52.934;5.884;2022-11-14T11:33:26;38.43;;;27.80;;
56136;SDS011;42008;52.934;5.884;2022-11-14T11:35:58;38.50;;;27.87;;
56136;SDS011;42008;52.934;5.884;2022-11-14T11:38:31;38.73;;;27.97;;
56136;SDS011;42008;52.934;5.884;2022-11-14T11:46:20;35.03;;;25.67;;
56136;SDS011;42008;52.934;5.884;2022-11-14T11:48:53;36.13;;;26.37;;
56136;SDS011;42008;52.934;5.884;2022-11-14T11:51:26;33.20;;;25.10;;
56136;SDS011;42008;52.934;5.884;2022-11-14T11:56:24;33.00;;;24.40;;
56136;SDS011;42008;52.934;5.884;2022-11-14T11:58:55;33.13;;;25.27;;
56136;SDS011;42008;52.934;5.884;2022-11-14T12:01:40;32.37;;;25.00;;
56136;SDS011;42008;52.934;5.884;2022-11-14T12:04:06;31.97;;;24.97;;
56136;SDS011;42008;52.934;5.884;2022-11-14T12:06:34;34.17;;;25.23;;
56136;SDS011;42008;52.934;5.884;2022-11-14T12:09:21;30.03;;;24.07;;
56136;SDS011;42008;52.934;5.884;2022-11-14T12:11:53;33.13;;;25.73;;
56136;SDS011;42008;52.934;5.884;2022-11-14T12:31:31;32.37;;;25.67;;
56136;SDS011;42008;52.934;5.884;2022-11-14T12:34:20;33.20;;;24.80;;
56136;SDS011;42008;52.934;5.884;2022-11-14T12:36:58;29.57;;;24.27;;
56136;SDS011;42008;52.934;5.884;2022-11-14T12:39:28;33.53;;;25.60;;
56136;SDS011;42008;52.934;5.884;2022-11-14T12:42:01;33.13;;;26.03;;
56136;SDS011;42008;52.934;5.884;2022-11-14T12:58:06;30.33;;;23.90;;
56136;SDS011;42008;52.934;5.884;2022-11-14T13:00:40;31.38;;;24.25;;
56136;SDS011;42008;52.934;5.884;2022-11-14T13:06:25;27.30;;;23.30;;
56136;SDS011;42008;52.934;5.884;2022-11-14T13:11:58;28.35;;;23.02;;
56136;SDS011;42008;52.934;5.884;2022-11-14T13:15:01;29.73;;;23.98;;
56136;SDS011;42008;52.934;5.884;2022-11-14T13:21:02;27.77;;;21.02;;
56136;SDS011;42008;52.934;5.884;2022-11-14T13:24:01;23.70;;;20.08;;
56136;SDS011;42008;52.934;5.884;2022-11-14T13:28:56;26.50;;;20.63;;
56136;SDS011;42008;52.934;5.884;2022-11-14T13:48:55;19.80;;;16.83;;
56136;SDS011;42008;52.934;5.884;2022-11-14T13:51:24;20.75;;;17.45;;
56136;SDS011;42008;52.934;5.884;2022-11-14T13:53:52;21.75;;;18.40;;
56136;SDS011;42008;52.934;5.884;2022-11-14T13:59:20;21.80;;;17.63;;
56136;SDS011;42008;52.934;5.884;2022-11-14T14:10:32;22.63;;;18.63;;
56136;SDS011;42008;52.934;5.884;2022-11-14T14:13:09;23.67;;;18.93;;
56136;SDS011;42008;52.934;5.884;2022-11-14T14:21:32;24.40;;;18.27;;
56136;SDS011;42008;52.934;5.884;2022-11-14T14:24:17;24.20;;;18.33;;
56136;SDS011;42008;52.934;5.884;2022-11-14T14:30:02;21.13;;;18.27;;
56136;SDS011;42008;52.934;5.884;2022-11-14T14:32:34;22.03;;;17.67;;
56136;SDS011;42008;52.934;5.884;2022-11-14T14:35:12;23.20;;;17.60;;
56136;SDS011;42008;52.934;5.884;2022-11-14T14:37:49;20.97;;;17.27;;
56136;SDS011;42008;52.934;5.884;2022-11-14T14:42:54;22.13;;;18.63;;
56136;SDS011;42008;52.934;5.884;2022-11-14T14:45:23;21.30;;;18.00;;
56136;SDS011;42008;52.934;5.884;2022-11-14T14:47:58;23.10;;;17.67;;
56136;SDS011;42008;52.934;5.884;2022-11-14T14:50:26;22.00;;;18.70;;
56136;SDS011;42008;52.934;5.884;2022-11-14T14:53:04;24.07;;;17.93;;
56136;SDS011;42008;52.934;5.884;2022-11-14T14:55:31;23.47;;;18.20;;
56136;SDS011;42008;52.934;5.884;2022-11-14T15:00:59;21.93;;;17.60;;
56136;SDS011;42008;52.934;5.884;2022-11-14T15:03:31;21.25;;;17.20;;
56136;SDS011;42008;52.934;5.884;2022-11-14T15:06:03;22.67;;;18.57;;
56136;SDS011;42008;52.934;5.884;2022-11-14T15:08:33;24.43;;;19.97;;
56136;SDS011;42008;52.934;5.884;2022-11-14T15:11:01;25.87;;;20.20;;
56136;SDS011;42008;52.934;5.884;2022-11-14T15:13:28;24.27;;;19.33;;
56136;SDS011;42008;52.934;5.884;2022-11-14T15:15:54;24.63;;;19.53;;
56136;SDS011;42008;52.934;5.884;2022-11-14T15:18:30;29.07;;;20.17;;
56136;SDS011;42008;52.934;5.884;2022-11-14T15:23:35;27.20;;;21.23;;
56136;SDS011;42008;52.934;5.884;2022-11-14T15:26:03;27.63;;;21.20;;
56136;SDS011;42008;52.934;5.884;2022-11-14T15:28:35;29.13;;;21.50;;
56136;SDS011;42008;52.934;5.884;2022-11-14T15:31:02;29.40;;;21.53;;
56136;SDS011;42008;52.934;5.884;2022-11-14T15:33:29;28.93;;;21.83;;
56136;SDS011;42008;52.934;5.884;2022-11-14T15:36:07;29.00;;;21.63;;
56136;SDS011;42008;52.934;5.884;2022-11-14T15:38:34;26.43;;;19.97;;
56136;SDS011;42008;52.934;5.884;2022-11-14T15:43:49;24.63;;;19.17;;
56136;SDS011;42008;52.934;5.884;2022-11-14T15:46:27;27.52;;;19.20;;
56136;SDS011;42008;52.934;5.884;2022-11-14T15:48:57;24.03;;;18.97;;
56136;SDS011;42008;52.934;5.884;2022-11-14T15:54:42;24.43;;;19.10;;
56136;SDS011;42008;52.934;5.884;2022-11-14T15:57:10;25.77;;;19.30;;
56136;SDS011;42008;52.934;5.884;2022-11-14T15:59:37;24.33;;;18.33;;
56136;SDS011;42008;52.934;5.884;2022-11-14T16:02:49;26.33;;;19.60;;
56136;SDS011;42008;52.934;5.884;2022-11-14T16:04:54;24.67;;;18.43;;
56136;SDS011;42008;52.934;5.884;2022-11-14T16:07:21;24.17;;;19.23;;
56136;SDS011;42008;52.934;5.884;2022-11-14T16:09:47;27.13;;;19.33;;
56136;SDS011;42008;52.934;5.884;2022-11-14T16:12:13;26.23;;;19.77;;
56136;SDS011;42008;52.934;5.884;2022-11-14T16:14:39;25.23;;;20.00;;
56136;SDS011;42008;52.934;5.884;2022-11-14T16:17:07;26.67;;;20.63;;
56136;SDS011;42008;52.934;5.884;2022-11-14T16:19:39;25.97;;;19.67;;
56136;SDS011;42008;52.934;5.884;2022-11-14T16:22:07;28.20;;;20.20;;
56136;SDS011;42008;52.934;5.884;2022-11-14T16:24:37;28.13;;;21.77;;
56136;SDS011;42008;52.934;5.884;2022-11-14T16:27:02;26.70;;;20.50;;
56136;SDS011;42008;52.934;5.884;2022-11-14T16:29:28;26.70;;;21.20;;
56136;SDS011;42008;52.934;5.884;2022-11-14T16:31:54;28.33;;;20.47;;
56136;SDS011;42008;52.934;5.884;2022-11-14T16:34:21;25.60;;;20.10;;
56136;SDS011;42008;52.934;5.884;2022-11-14T16:36:52;23.97;;;19.20;;
56136;SDS011;42008;52.934;5.884;2022-11-14T16:39:21;25.07;;;20.27;;
56136;SDS011;42008;52.934;5.884;2022-11-14T16:41:47;25.73;;;19.47;;
56136;SDS011;42008;52.934;5.884;2022-11-14T16:44:16;25.40;;;19.63;;
56136;SDS011;42008;52.934;5.884;2022-11-14T16:46:43;24.27;;;19.23;;